createdAt,value
2022-08-08T00:00:55.923Z,9.70
2022-08-08T00:02:32.749Z,7.55
2022-08-08T00:05:43.545Z,8.55
2022-08-08T00:08:20.079Z,8.40
2022-08-08T00:11:07.863Z,8.63
2022-08-08T00:14:17.573Z,8.07
2022-08-08T00:16:51.945Z,7.97
2022-08-08T00:19:30.638Z,7.93
2022-08-08T00:22:02.262Z,6.40
2022-08-08T00:24:32.262Z,6.82
2022-08-08T00:27:01.294Z,6.30
2022-08-08T00:29:45.070Z,6.03
2022-08-08T00:32:38.749Z,8.93
2022-08-08T00:35:24.327Z,8.00
2022-08-08T00:38:16.880Z,8.77
2022-08-08T00:41:15.222Z,8.57
2022-08-08T00:44:16.970Z,7.90
2022-08-08T00:46:58.242Z,7.00
2022-08-08T00:49:32.170Z,8.15
2022-08-08T00:52:19.639Z,5.65
2022-08-08T00:55:05.442Z,10.18
2022-08-08T00:57:57.110Z,6.63
2022-08-08T01:00:28.061Z,7.53
2022-08-08T01:04:02.766Z,6.90
2022-08-08T01:06:08.093Z,7.15
2022-08-08T01:08:52.080Z,7.28
2022-08-08T01:11:29.277Z,7.28
2022-08-08T01:14:16.198Z,6.90
2022-08-08T01:16:49.986Z,7.40
2022-08-08T01:19:52.594Z,7.97
2022-08-08T01:22:44.539Z,7.97
2022-08-08T01:25:40.570Z,8.77
2022-08-08T01:28:31.254Z,9.75
2022-08-08T01:32:05.566Z,8.25
2022-08-08T01:34:29.055Z,8.20
2022-08-08T01:37:05.852Z,8.07
2022-08-08T01:42:08.072Z,8.95
2022-08-08T01:44:39.998Z,9.33
2022-08-08T01:48:15.389Z,7.35
2022-08-08T01:50:36.313Z,8.30
2022-08-08T01:55:15.673Z,10.68
2022-08-08T01:56:30.455Z,11.10
2022-08-08T01:59:08.840Z,9.50
2022-08-08T02:01:55.071Z,10.00
2022-08-08T02:04:43.401Z,10.63
2022-08-08T02:07:13.633Z,10.35
2022-08-08T02:10:04.018Z,10.57
2022-08-08T02:12:34.752Z,8.32
2022-08-08T02:15:12.511Z,11.65
2022-08-08T02:17:50.371Z,8.70
2022-08-08T02:21:00.667Z,11.70
2022-08-08T02:23:35.067Z,7.80
2022-08-08T02:26:38.911Z,9.52
2022-08-08T02:29:18.974Z,9.07
2022-08-08T02:32:05.622Z,7.97
2022-08-08T02:34:38.471Z,9.75
2022-08-08T02:37:52.306Z,8.05
2022-08-08T02:40:24.050Z,10.07
2022-08-08T02:44:35.416Z,10.00
2022-08-08T02:48:48.012Z,8.57
2022-08-08T02:51:30.396Z,7.07
2022-08-08T02:54:27.869Z,8.48
2022-08-08T02:57:22.368Z,6.90
2022-08-08T03:00:31.131Z,6.22
2022-08-08T03:05:00.295Z,7.47
2022-08-08T03:06:07.265Z,7.85
2022-08-08T03:08:34.287Z,8.25
2022-08-08T03:11:31.797Z,6.80
2022-08-08T03:15:57.395Z,7.43
2022-08-08T03:17:38.931Z,6.18
2022-08-08T03:20:08.266Z,6.93
2022-08-08T03:22:57.268Z,6.97
2022-08-08T03:25:36.083Z,5.80
2022-08-08T03:28:10.166Z,5.47
2022-08-08T03:30:42.668Z,6.72
2022-08-08T03:33:58.393Z,5.90
2022-08-08T03:36:09.405Z,6.70
2022-08-08T03:38:56.983Z,6.60
2022-08-08T03:42:27.434Z,6.28
2022-08-08T03:44:17.760Z,6.68
2022-08-08T03:46:47.731Z,7.40
2022-08-08T03:50:00.769Z,6.22
2022-08-08T03:52:13.153Z,7.05
2022-08-08T03:55:01.548Z,7.28
2022-08-08T03:58:33.741Z,7.25
2022-08-08T04:00:21.058Z,7.18
2022-08-08T04:02:55.716Z,8.70
2022-08-08T04:05:28.877Z,10.65
2022-08-08T04:08:00.650Z,8.30
2022-08-08T04:10:32.174Z,8.32
2022-08-08T04:13:00.962Z,11.27
2022-08-08T04:15:38.569Z,7.65
2022-08-08T04:18:06.443Z,7.45
2022-08-08T04:20:36.592Z,7.28
2022-08-08T04:23:07.000Z,9.48
2022-08-08T04:25:38.150Z,7.35
2022-08-08T04:28:36.797Z,8.35
2022-08-08T04:30:51.486Z,9.23
2022-08-08T04:33:21.996Z,7.85
2022-08-08T04:35:51.045Z,7.95
2022-08-08T04:38:21.919Z,8.48
2022-08-08T04:40:53.644Z,7.60
2022-08-08T04:43:22.567Z,7.07
2022-08-08T04:45:59.529Z,7.18
2022-08-08T04:48:26.010Z,9.25
2022-08-08T04:50:53.511Z,6.53
2022-08-08T04:54:37.013Z,12.27
2022-08-08T04:56:16.798Z,8.50
2022-08-08T04:58:43.453Z,7.35
2022-08-08T05:01:13.445Z,7.00
2022-08-08T05:04:11.481Z,7.82
2022-08-08T05:06:39.198Z,11.38
2022-08-08T05:09:07.263Z,8.25
2022-08-08T05:11:39.546Z,8.18
2022-08-08T05:14:12.281Z,6.15
2022-08-08T05:16:53.750Z,6.45
2022-08-08T05:20:04.252Z,7.30
2022-08-08T05:22:18.491Z,7.57
2022-08-08T05:24:49.413Z,13.15
2022-08-08T05:27:18.940Z,9.68
2022-08-08T05:29:51.730Z,7.80
2022-08-08T05:32:24.630Z,8.98
2022-08-08T05:34:58.684Z,9.98
2022-08-08T05:37:49.291Z,9.70
2022-08-08T05:40:21.609Z,9.15
2022-08-08T05:42:56.898Z,7.72
2022-08-08T05:45:25.039Z,8.73
2022-08-08T05:48:01.172Z,8.75
2022-08-08T05:50:33.619Z,9.35
2022-08-08T05:53:54.722Z,8.48
2022-08-08T05:56:11.392Z,9.63
2022-08-08T05:58:35.009Z,8.90
2022-08-08T06:01:03.161Z,12.85
2022-08-08T06:03:32.039Z,10.77
2022-08-08T06:06:06.408Z,9.55
2022-08-08T06:08:36.510Z,8.02
2022-08-08T06:11:08.474Z,6.85
2022-08-08T06:13:47.034Z,8.50
2022-08-08T06:16:16.448Z,9.30
2022-08-08T06:19:12.209Z,9.43
2022-08-08T06:21:57.066Z,5.85
2022-08-08T06:24:36.132Z,7.57
2022-08-08T06:27:05.463Z,7.45
2022-08-08T06:29:59.146Z,6.93
2022-08-08T06:32:26.748Z,9.80
2022-08-08T06:35:11.795Z,6.72
2022-08-08T06:37:50.833Z,8.48
2022-08-08T06:40:26.647Z,6.57
2022-08-08T06:42:55.049Z,5.28
2022-08-08T06:45:26.674Z,6.70
2022-08-08T06:48:01.085Z,6.43
2022-08-08T06:50:33.420Z,5.28
2022-08-08T06:53:14.135Z,8.60
2022-08-08T06:56:02.801Z,5.90
2022-08-08T06:58:34.325Z,5.32
2022-08-08T07:01:52.298Z,5.97
2022-08-08T07:04:37.900Z,9.40
2022-08-08T07:06:56.138Z,7.20
2022-08-08T07:09:41.454Z,7.20
2022-08-08T07:12:09.446Z,9.02
2022-08-08T07:14:43.395Z,5.93
2022-08-08T07:17:19.761Z,7.82
2022-08-08T07:19:47.376Z,5.63
2022-08-08T07:22:18.827Z,7.13
2022-08-08T07:24:53.997Z,7.30
2022-08-08T07:27:35.208Z,5.25
2022-08-08T07:30:14.953Z,5.72
2022-08-08T07:32:49.842Z,7.10
2022-08-08T07:35:17.916Z,7.43
2022-08-08T07:38:04.404Z,6.63
2022-08-08T07:40:48.303Z,7.07
2022-08-08T07:43:32.366Z,7.22
2022-08-08T07:46:23.332Z,6.07
2022-08-08T07:48:52.806Z,7.57
2022-08-08T07:51:23.961Z,4.35
2022-08-08T07:54:12.498Z,6.15
2022-08-08T07:56:55.248Z,7.05
2022-08-08T07:59:24.771Z,6.53
2022-08-08T08:02:36.961Z,5.57
2022-08-08T08:04:49.031Z,7.35
2022-08-08T08:07:17.083Z,4.35
2022-08-08T08:09:44.442Z,6.35
2022-08-08T08:12:31.447Z,7.97
2022-08-08T08:15:04.907Z,6.43
2022-08-08T08:17:36.477Z,8.90
2022-08-08T08:20:14.746Z,4.97
2022-08-08T08:22:41.394Z,5.90
2022-08-08T08:25:09.806Z,8.60
2022-08-08T08:27:39.022Z,5.75
2022-08-08T08:30:14.070Z,4.95
2022-08-08T08:32:49.300Z,5.60
2022-08-08T08:35:21.331Z,4.93
2022-08-08T08:38:13.590Z,5.20
2022-08-08T08:40:35.617Z,5.75
2022-08-08T08:43:03.573Z,5.40
2022-08-08T08:45:31.240Z,4.32
2022-08-08T08:48:01.754Z,6.50
2022-08-08T08:50:35.075Z,6.68
2022-08-08T08:53:55.334Z,4.45
2022-08-08T08:56:02.213Z,4.18
2022-08-08T08:58:32.855Z,5.88
2022-08-08T09:01:08.988Z,6.30
2022-08-08T09:03:47.170Z,3.58
2022-08-08T09:06:28.319Z,5.55
2022-08-08T09:09:02.754Z,3.88
2022-08-08T09:11:33.040Z,5.65
2022-08-08T09:14:00.780Z,4.68
2022-08-08T09:16:28.790Z,5.70
2022-08-08T09:18:56.560Z,5.65
2022-08-08T09:21:59.504Z,3.45
2022-08-08T09:24:13.451Z,6.25
2022-08-08T09:26:49.741Z,5.18
2022-08-08T09:29:24.504Z,3.88
2022-08-08T09:32:02.750Z,2.90
2022-08-08T09:34:34.965Z,4.35
2022-08-08T09:37:39.613Z,5.13
2022-08-08T09:40:10.724Z,3.00
2022-08-08T09:42:44.351Z,2.70
2022-08-08T09:45:55.282Z,2.85
2022-08-08T09:48:20.949Z,3.97
2022-08-08T09:50:50.640Z,1.88
2022-08-08T09:53:31.930Z,1.90
2022-08-08T09:56:12.302Z,2.15
2022-08-08T09:58:40.607Z,3.40
2022-08-08T10:01:15.076Z,3.28
2022-08-08T10:03:58.205Z,2.75
2022-08-08T10:06:29.917Z,2.80
2022-08-08T10:08:59.955Z,4.75
2022-08-08T10:12:26.967Z,2.65
2022-08-08T10:14:28.373Z,4.60
2022-08-08T10:17:00.484Z,2.50
2022-08-08T10:19:57.314Z,5.47
2022-08-08T10:26:25.634Z,2.90
2022-08-08T10:29:03.009Z,4.15
2022-08-08T10:31:56.230Z,4.03
2022-08-08T10:34:23.375Z,6.90
2022-08-08T10:36:50.245Z,5.15
2022-08-08T10:39:18.340Z,5.50
2022-08-08T10:42:16.629Z,4.15
2022-08-08T10:44:43.461Z,3.28
2022-08-08T10:47:13.445Z,4.18
2022-08-08T10:50:01.153Z,4.03
2022-08-08T10:52:30.685Z,4.65
2022-08-08T10:54:59.264Z,5.28
2022-08-08T10:57:50.240Z,2.92
2022-08-08T11:00:21.931Z,2.85
2022-08-08T11:02:50.127Z,5.75
2022-08-08T11:05:17.790Z,4.95
2022-08-08T11:08:30.606Z,3.88
2022-08-08T11:10:38.109Z,3.42
2022-08-08T11:13:28.177Z,4.65
2022-08-08T11:15:54.768Z,3.28
2022-08-08T11:18:28.021Z,3.83
2022-08-08T11:20:58.690Z,6.18
2022-08-08T11:23:31.401Z,3.63
2022-08-08T11:25:59.642Z,3.08
2022-08-08T11:28:30.587Z,2.42
2022-08-08T11:30:59.878Z,3.85
2022-08-08T11:33:51.143Z,3.03
2022-08-08T11:36:15.031Z,2.58
2022-08-08T11:38:54.285Z,3.85
2022-08-08T11:41:21.964Z,4.57
2022-08-08T11:43:48.931Z,4.15
2022-08-08T11:46:17.752Z,2.25
2022-08-08T11:48:47.209Z,3.83
2022-08-08T11:51:38.590Z,1.98
2022-08-08T11:54:04.234Z,3.28
2022-08-08T11:56:34.801Z,5.10
2022-08-08T11:59:09.594Z,3.10
2022-08-08T12:01:37.029Z,3.07
2022-08-08T12:04:04.943Z,3.25
2022-08-08T12:06:32.616Z,4.15
2022-08-08T12:09:06.287Z,4.03
2022-08-08T12:11:37.723Z,3.40
2022-08-08T12:14:04.660Z,3.05
2022-08-08T12:16:39.583Z,5.13
2022-08-08T12:19:13.473Z,3.38
2022-08-08T12:21:59.415Z,2.67
2022-08-08T12:24:28.284Z,2.25
2022-08-08T12:26:58.355Z,2.67
2022-08-08T12:29:40.097Z,5.72
2022-08-08T12:32:17.074Z,2.50
2022-08-08T12:34:52.949Z,3.42
2022-08-08T12:37:40.015Z,3.50
2022-08-08T12:42:47.379Z,2.55
2022-08-08T12:45:14.471Z,2.65
2022-08-08T12:48:10.022Z,2.90
2022-08-08T12:50:54.701Z,2.55
2022-08-08T12:53:24.683Z,1.70
2022-08-08T12:56:08.532Z,3.38
2022-08-08T12:58:45.695Z,2.25
2022-08-08T13:01:12.284Z,2.88
2022-08-08T13:03:45.058Z,2.75
2022-08-08T13:06:19.146Z,2.45
2022-08-08T13:08:53.779Z,2.65
2022-08-08T13:12:28.113Z,3.05
2022-08-08T13:14:53.455Z,3.90
2022-08-08T13:17:54.404Z,2.22
2022-08-08T13:20:17.247Z,2.55
2022-08-08T13:22:44.392Z,3.08
2022-08-08T13:25:16.023Z,2.92
2022-08-08T13:27:43.630Z,4.03
2022-08-08T13:30:16.023Z,2.38
2022-08-08T13:32:47.428Z,4.20
2022-08-08T13:35:24.669Z,3.00
2022-08-08T13:38:08.064Z,3.40
2022-08-08T13:40:41.091Z,3.17
2022-08-08T13:43:07.996Z,2.75
2022-08-08T13:45:35.206Z,5.63
2022-08-08T13:48:03.938Z,4.68
2022-08-08T13:50:50.284Z,3.30
2022-08-08T13:53:33.936Z,2.78
2022-08-08T13:56:05.971Z,3.45
2022-08-08T13:58:33.247Z,4.30
2022-08-08T14:01:10.753Z,3.65
2022-08-08T14:03:52.432Z,3.15
2022-08-08T14:06:34.201Z,3.22
2022-08-08T14:09:25.488Z,2.25
2022-08-08T14:11:49.629Z,3.70
2022-08-08T14:14:20.506Z,3.45
2022-08-08T14:16:50.815Z,2.63
2022-08-08T14:19:22.426Z,3.00
2022-08-08T14:22:12.610Z,2.88
2022-08-08T14:24:51.311Z,3.15
2022-08-08T14:27:18.478Z,1.88
2022-08-08T14:30:18.338Z,2.08
2022-08-08T14:32:47.474Z,3.75
2022-08-08T14:35:20.979Z,3.72
2022-08-08T14:37:57.219Z,3.42
2022-08-08T14:40:29.726Z,2.92
2022-08-08T14:42:59.809Z,2.03
2022-08-08T14:45:47.087Z,2.83
2022-08-08T14:48:16.572Z,2.05
2022-08-08T14:51:03.591Z,2.67
2022-08-08T14:53:37.152Z,3.33
2022-08-08T14:56:04.552Z,3.28
2022-08-08T14:58:31.028Z,1.75
2022-08-08T15:00:57.516Z,2.35
2022-08-08T15:03:23.971Z,1.80
2022-08-08T15:05:55.752Z,4.55
2022-08-08T15:08:34.313Z,1.45
2022-08-08T15:11:04.255Z,3.50
2022-08-08T15:13:39.641Z,2.35
2022-08-08T15:16:12.222Z,3.35
2022-08-08T15:18:49.880Z,3.50
2022-08-08T15:21:17.973Z,2.92
2022-08-08T15:23:44.367Z,2.45
2022-08-08T15:26:18.282Z,3.30
2022-08-08T15:28:44.693Z,2.53
2022-08-08T15:31:48.932Z,3.65
2022-08-08T15:33:58.532Z,3.45
2022-08-08T15:36:28.890Z,4.13
2022-08-08T15:38:55.373Z,2.90
2022-08-08T15:41:24.989Z,2.38
2022-08-08T15:44:08.798Z,2.17
2022-08-08T15:46:39.007Z,3.30
2022-08-08T15:49:11.704Z,2.63
2022-08-08T15:51:38.283Z,2.65
2022-08-08T15:54:05.039Z,2.28
2022-08-08T15:56:31.708Z,3.03
2022-08-08T15:58:59.963Z,2.63
2022-08-08T16:01:40.728Z,2.60
2022-08-08T16:04:13.988Z,2.67
2022-08-08T16:06:44.690Z,2.17
2022-08-08T16:13:14.782Z,3.88
2022-08-08T16:13:28.723Z,2.30
2022-08-08T16:14:52.809Z,2.58
2022-08-08T16:17:57.835Z,2.35
2022-08-08T16:20:11.278Z,4.13
2022-08-08T16:22:41.642Z,4.28
2022-08-08T16:25:08.817Z,3.20
2022-08-08T16:27:36.955Z,2.63
2022-08-08T16:30:08.068Z,1.92
2022-08-08T16:32:35.809Z,2.83
2022-08-08T16:35:03.235Z,4.75
2022-08-08T16:37:30.352Z,4.05
2022-08-08T16:40:02.190Z,3.47
2022-08-08T16:42:30.267Z,2.55
2022-08-08T16:44:58.907Z,2.38
2022-08-08T16:47:40.628Z,4.05
2022-08-08T16:50:13.645Z,2.17
2022-08-08T16:55:03.547Z,2.08
2022-08-08T16:55:53.219Z,3.08
2022-08-08T16:58:18.473Z,6.20
2022-08-08T17:00:49.003Z,5.07
2022-08-08T17:03:18.196Z,3.42
2022-08-08T17:05:53.419Z,5.47
2022-08-08T17:08:20.252Z,2.40
2022-08-08T17:10:57.982Z,2.80
2022-08-08T17:13:50.232Z,2.67
2022-08-08T17:16:24.403Z,5.00
2022-08-08T17:18:51.480Z,4.25
2022-08-08T17:21:21.396Z,3.13
2022-08-08T17:24:02.015Z,4.47
2022-08-08T17:26:30.489Z,4.13
2022-08-08T17:29:04.051Z,5.22
2022-08-08T17:31:43.509Z,6.05
2022-08-08T17:34:48.660Z,3.78
2022-08-08T17:37:03.341Z,6.82
2022-08-08T17:40:04.787Z,3.40
2022-08-08T17:42:17.943Z,4.25
2022-08-08T17:44:44.925Z,3.53
2022-08-08T17:47:24.173Z,3.58
2022-08-08T17:50:01.242Z,3.75
2022-08-08T17:52:30.064Z,2.75
2022-08-08T17:54:57.180Z,5.95
2022-08-08T17:57:23.967Z,4.93
2022-08-08T17:59:51.869Z,4.88
2022-08-08T18:02:28.453Z,4.35
2022-08-08T18:04:57.987Z,5.10
2022-08-08T18:08:02.355Z,4.72
2022-08-08T18:10:10.962Z,4.40
2022-08-08T18:12:37.353Z,3.42
2022-08-08T18:15:07.351Z,3.58
2022-08-08T18:18:08.926Z,4.13
2022-08-08T18:20:43.133Z,3.20
2022-08-08T18:23:12.511Z,5.13
2022-08-08T18:25:42.026Z,2.97
2022-08-08T18:28:13.042Z,7.07
2022-08-08T18:30:40.790Z,4.18
2022-08-08T18:33:07.487Z,6.47
2022-08-08T18:35:47.518Z,3.17
2022-08-08T18:38:17.114Z,4.75
2022-08-08T18:40:45.961Z,2.85
2022-08-08T18:43:16.497Z,6.05
2022-08-08T18:46:00.530Z,3.97
2022-08-08T18:48:30.012Z,3.72
2022-08-08T18:50:58.934Z,4.57
2022-08-08T18:53:51.594Z,4.38
2022-08-08T18:56:22.879Z,3.38
2022-08-08T18:58:49.564Z,2.90
2022-08-08T19:02:26.307Z,3.15
2022-08-08T19:04:10.828Z,2.85
2022-08-08T19:06:39.131Z,6.65
2022-08-08T19:09:13.174Z,2.95
2022-08-08T19:11:40.206Z,3.63
2022-08-08T19:14:20.619Z,2.70
2022-08-08T19:16:50.302Z,6.32
2022-08-08T19:19:17.829Z,6.13
2022-08-08T19:21:49.762Z,3.40
2022-08-08T19:24:38.951Z,3.53
2022-08-08T19:27:04.008Z,3.83
2022-08-08T19:29:30.602Z,2.75
2022-08-08T19:31:57.325Z,4.90
2022-08-08T19:34:36.722Z,5.13
2022-08-08T19:37:07.821Z,4.28
2022-08-08T19:39:57.237Z,2.80
2022-08-08T19:42:23.710Z,4.80
2022-08-08T19:44:51.328Z,4.18
2022-08-08T19:47:23.960Z,3.00
2022-08-08T19:50:00.649Z,4.63
2022-08-08T19:52:36.907Z,4.40
2022-08-08T19:55:05.155Z,4.20
2022-08-08T19:57:32.889Z,7.10
2022-08-08T20:00:03.875Z,4.43
2022-08-08T20:05:05.397Z,4.13
2022-08-08T20:08:30.438Z,4.00
2022-08-08T20:10:18.794Z,5.45
2022-08-08T20:12:59.045Z,6.28
2022-08-08T20:15:52.400Z,4.13
2022-08-08T20:18:19.770Z,3.35
2022-08-08T20:20:51.238Z,3.58
2022-08-08T20:23:17.785Z,4.95
2022-08-08T20:25:44.393Z,4.60
2022-08-08T20:28:17.566Z,3.90
2022-08-08T20:30:56.071Z,4.47
2022-08-08T20:33:28.571Z,3.15
2022-08-08T20:36:17.146Z,4.03
2022-08-08T20:38:48.496Z,4.03
2022-08-08T20:41:19.019Z,6.20
2022-08-08T20:43:48.134Z,5.82
2022-08-08T20:46:17.290Z,3.38
2022-08-08T20:48:43.949Z,5.20
2022-08-08T20:51:10.559Z,4.45
2022-08-08T20:54:00.139Z,3.80
2022-08-08T20:56:35.893Z,4.93
2022-08-08T20:59:11.938Z,5.25
2022-08-08T21:02:05.789Z,4.78
2022-08-08T21:04:27.517Z,5.00
2022-08-08T21:06:54.393Z,6.63
2022-08-08T21:09:21.559Z,6.15
2022-08-08T21:11:51.285Z,5.82
2022-08-08T21:14:18.816Z,3.90
2022-08-08T21:16:59.721Z,3.60
2022-08-08T21:21:55.851Z,3.20
2022-08-08T21:24:30.397Z,5.78
2022-08-08T21:26:57.450Z,4.28
2022-08-08T21:30:03.729Z,3.88
2022-08-08T21:32:19.357Z,5.40
2022-08-08T21:34:51.696Z,4.72
2022-08-08T21:37:23.342Z,4.90
2022-08-08T21:40:10.142Z,3.08
2022-08-08T21:42:37.868Z,5.07
2022-08-08T21:48:20.287Z,3.58
2022-08-08T21:50:37.071Z,5.85
2022-08-08T21:54:36.814Z,4.32
2022-08-08T21:56:24.508Z,5.05
2022-08-08T21:58:38.004Z,6.57
2022-08-08T22:01:04.676Z,5.50
2022-08-08T22:03:31.382Z,5.03
2022-08-08T22:06:00.579Z,3.83
2022-08-08T22:08:41.982Z,4.43
2022-08-08T22:11:48.263Z,6.72
2022-08-08T22:13:55.793Z,9.27
2022-08-08T22:16:24.946Z,6.03
2022-08-08T22:18:52.579Z,7.20
2022-08-08T22:21:22.568Z,4.07
2022-08-08T22:23:53.529Z,6.72
2022-08-08T22:26:26.978Z,6.03
2022-08-08T22:29:14.477Z,7.78
2022-08-08T22:31:42.013Z,6.45
2022-08-08T22:34:13.020Z,4.43
2022-08-08T22:36:41.349Z,4.38
2022-08-08T22:39:09.526Z,5.40
2022-08-08T22:44:11.724Z,5.97
2022-08-08T22:46:39.884Z,5.85
2022-08-08T22:49:06.721Z,6.15
2022-08-08T22:51:42.713Z,6.60
2022-08-08T22:54:32.761Z,5.50
2022-08-08T22:56:59.249Z,9.70
2022-08-08T23:02:03.609Z,5.38
2022-08-08T23:04:32.527Z,8.70
2022-08-08T23:07:02.720Z,4.85
2022-08-08T23:09:30.531Z,6.85
2022-08-08T23:12:17.728Z,6.18
2022-08-08T23:14:53.496Z,5.45
2022-08-08T23:17:30.073Z,6.90
2022-08-08T23:19:56.626Z,4.57
2022-08-08T23:24:49.424Z,5.45
2022-08-08T23:27:17.245Z,6.50
2022-08-08T23:30:03.716Z,7.05
2022-08-08T23:32:30.875Z,8.20
2022-08-08T23:34:59.697Z,7.32
2022-08-08T23:37:26.518Z,6.25
2022-08-08T23:40:13.214Z,7.53
2022-08-08T23:42:40.899Z,5.40
2022-08-08T23:45:12.606Z,5.32
2022-08-08T23:49:02.370Z,6.93
2022-08-08T23:50:30.604Z,9.40
2022-08-08T23:52:57.853Z,6.00
2022-08-08T23:55:26.228Z,7.57
2022-08-08T23:57:58.469Z,6.93
